• Join FlightAware (Why Join?)
  • Login
  • US Flag 
04:02PM EST


 

Airport Tracker/Info


-or-


 

Live Flight TrackerFlight Track Log ✈ AWE3874 ✈ 23-Apr-2013 ✈ KMOB - KCLT

Flight Track Log - Related Links

Times and Time Zones

All times are in EDT time to prevent confusion due to time zone crossing. See the AWE3874 flight status page for this flight to view local times or setup timezone preferences in your user account.

Time Position Orientation Groundspeed Altitude Reporting Facility
EDT Latitude Longitude Course Direction KTS MPH feet Rate Location/Type
03:26PM 30.9007 -87.9827 41° Northeast  Level FlightAware Approximate
03:26PM 30.6292 -88.1167 88° East 228 262 5,900  Level Houston Center
03:27PM 30.9785 -87.9048 41° Northeast  Level FlightAware Approximate
03:27PM 30.6886 -88.0600 39° Northeast 275 316 8,400  Level Houston Center
03:28PM 31.0521 -87.8215 44° Northeast  Level FlightAware Approximate
03:28PM 30.7489 -87.9994 41° Northeast 284 327 10,600  Level Houston Center
03:29PM 31.1218 -87.7339 52° Northeast  Level FlightAware Approximate
03:29PM 30.8333 -87.9506 26° Northeast 296 341 13,600  Level Houston Center
03:30PM 31.1907 -87.6490 45° Northeast  Level FlightAware Approximate
03:30PM 30.9097 -87.9139 22° Northeast 298 343 16,000  Level Houston Center
03:31PM 30.9769 -87.8467 41° Northeast 319 367 17,900 1,839 Climbing Houston Center
03:32PM 31.0467 -87.7778 40° Northeast 331 381 19,800 1,984 Climbing Houston Center
03:33PM 31.1350 -87.6889 41° Northeast 353 406 22,000 1,839 Climbing Houston Center
03:34PM 31.2081 -87.6094 43° Northeast 361 415 23,600 1,452 Climbing Houston Center
03:35PM 31.2847 -87.5308 41° Northeast 367 422 25,000 1,306 Climbing Houston Center
03:36PM 31.3642 -87.4486 41° Northeast 380 437 26,300 1,169 Climbing Houston Center
03:36PM 31.3869 -87.4319 32° Northeast 366 421 26,500 560 Climbing Atlanta Center
03:37PM 31.4667 -87.3425 44° Northeast 378 435 27,000 250 Climbing Atlanta Center
03:38PM 31.5219 -87.2275 61° Northeast 393 452 27,000 50 Level Atlanta Center
03:39PM 31.5769 -87.1103 61° Northeast 398 458 27,100 600 Climbing Atlanta Center
03:40PM 31.6344 -86.9756 63° Northeast 408 470 28,200 1,150 Climbing Atlanta Center
03:41PM 31.6917 -86.8528 61° Northeast 413 475 29,400 1,250 Climbing Atlanta Center
03:42PM 31.7467 -86.7300 62° Northeast 419 482 30,700 1,250 Climbing Atlanta Center
03:43PM 31.7992 -86.6144 62° Northeast 414 476 31,900 1,050 Climbing Atlanta Center
03:44PM 31.8536 -86.4961 62° Northeast 414 476 32,800 550 Climbing Atlanta Center
03:45PM 31.9061 -86.3753 63° Northeast 404 465 33,000 100 Climbing Atlanta Center
03:46PM 31.9561 -86.2639 62° Northeast 409 471 33,000  Level Atlanta Center
03:47PM 32.0106 -86.1428 62° Northeast 409 471 33,000  Level Atlanta Center
03:48PM 32.0733 -86.0094 61° Northeast 409 471 33,000  Level Atlanta Center
03:49PM 32.1186 -85.9025 63° Northeast 403 464 33,000  Level Atlanta Center
03:50PM 32.1706 -85.7858 62° Northeast 403 464 33,000  Level Atlanta Center
03:51PM 32.2264 -85.6642 61° Northeast 408 470 33,000  Level Atlanta Center
03:52PM 32.2758 -85.5447 64° Northeast 402 463 33,000  Level Atlanta Center
03:53PM 32.3294 -85.4253 62° Northeast 402 463 33,000  Level Atlanta Center
03:54PM 32.3850 -85.3081 61° Northeast 402 463 33,000  Level Atlanta Center
03:55PM 32.4342 -85.1881 64° Northeast 402 463 33,000  Level Atlanta Center
03:56PM 32.4853 -85.0681 63° Northeast 402 463 33,000  Level Atlanta Center
03:57PM 32.5364 -84.9481 63° Northeast 402 463 33,000  Level Atlanta Center
03:58PM 32.5936 -84.8303 60° Northeast 402 463 33,000  Level Atlanta Center
03:59PM 32.6444 -84.7147 62° Northeast 397 457 33,000  Level Atlanta Center
04:00PM 32.6950 -84.5942 63° Northeast 397 457 33,000  Level Atlanta Center
04:01PM 32.7497 -84.4686 63° Northeast 408 470 33,000  Level Atlanta Center
04:02PM 32.8067 -84.3353 63° Northeast 401 461 33,000  Level Atlanta Center
04:03PM 32.8589 -84.2144 63° Northeast 409 471 33,000  Level Atlanta Center
04:04PM 32.9072 -84.1056 62° Northeast 403 464 33,000  Level Atlanta Center
04:05PM 32.9572 -83.9794 65° Northeast 403 464 33,000  Level Atlanta Center
04:06PM 33.0092 -83.8606 62° Northeast 403 464 33,000  Level Atlanta Center
04:07PM 33.0653 -83.7217 64° Northeast 403 464 33,000  Level Atlanta Center
04:08PM 33.1150 -83.6022 64° Northeast 400 460 33,000  Level Atlanta Center
04:09PM 33.1667 -83.4781 64° Northeast 405 466 33,000  Level Atlanta Center
04:10PM 33.2183 -83.3558 63° Northeast 405 466 33,000  Level Atlanta Center
04:11PM 33.2656 -83.2389 64° Northeast 400 460 33,000  Level Atlanta Center
04:12PM 33.3108 -83.1317 63° Northeast 405 466 33,000  Level Atlanta Center
04:13PM 33.3619 -83.0117 63° Northeast 399 459 33,000 -450 Level Atlanta Center
04:14PM 33.4153 -82.8867 63° Northeast 407 468 32,100 -1,000 Descending Atlanta Center
04:15PM 33.4642 -82.7639 64° Northeast 407 468 31,000 -1,050 Descending Atlanta Center
04:16PM 33.5128 -82.6436 64° Northeast 402 463 30,000 -1,000 Descending Atlanta Center
04:17PM 33.5614 -82.5206 65° Northeast 407 468 29,000 -1,000 Descending Atlanta Center
04:18PM 33.6122 -82.4025 63° Northeast 399 459 28,000 -1,000 Descending Atlanta Center
04:19PM 33.6625 -82.2642 66° East 405 466 27,000 -1,000 Descending Atlanta Center
04:20PM 33.7278 -82.1606 53° Northeast 400 460 26,000 -1,000 Descending Atlanta Center
04:21PM 33.8236 -82.1608 360° North 343 395 25,000 -1,000 Descending Atlanta Center
04:22PM 33.9258 -82.1586 North 348 400 24,000 -500 Descending Atlanta Center
04:23PM 34.0261 -82.1564 North 353 406 24,000  Level Atlanta Center
04:24PM 34.1264 -82.1567 360° North 353 406 24,000 -633 Level Atlanta Center
04:26PM 34.3089 -82.0847 18° North 341 392 22,100 -967 Descending Atlanta Center
04:27PM 34.3803 -81.9925 47° Northeast 346 398 21,100 -1,000 Descending Atlanta Center
04:28PM 34.4519 -81.9000 47° Northeast 358 412 20,100 -1,672 Descending Atlanta Center
04:29PM 34.5294 -81.7997 47° Northeast 362 417 17,700 -2,061 Descending Atlanta Center
04:30PM 34.5722 -81.7508 43° Northeast 342 394 16,700 -1,448 Descending Atlanta Center
04:30PM 34.5864 -81.7278 53° Northeast 351 404 16,300 -2,060 Descending Atlanta Center
04:31PM 34.6478 -81.6578 43° Northeast 337 388 14,400 -2,118 Descending Atlanta Center
04:32PM 34.7025 -81.5856 47° Northeast 339 390 12,700 -1,865 Descending Atlanta Center
04:32PM 34.7231 -81.5569 49° Northeast 330 380 12,100 -627 Descending Atlanta Center
04:33PM 34.7717 -81.4975 45° Northeast 309 356 12,000 -50 Descending Atlanta Center
04:34PM 34.8408 -81.4067 47° Northeast 305 351 12,000  Level Atlanta Center
04:35PM 34.8894 -81.3444 46° Northeast 313 360 12,000  Level Atlanta Center
04:36PM 34.9586 -81.2536 47° Northeast 305 351 12,000 -233 Level Atlanta Center
04:37PM 35.0172 -81.1781 47° Northeast 305 351 11,500 -1,050 Descending Atlanta Center
04:38PM 35.0781 -81.1022 46° Northeast 294 338 9,900 -1,250 Descending Atlanta Center
04:39PM 35.1464 -81.0744 18° North 277 319 9,000 -683 Descending Atlanta Center
04:40PM 35.2144 -81.0517 15° North 238 274 8,500 -919 Descending Atlanta Center
04:41PM 35.2742 -81.0114 29° Northeast 244 281 7,100 -787 Descending Atlanta Center
04:42PM 35.3186 -80.9511 48° Northeast 232 267 6,900 -885 Descending Atlanta Center
04:43PM 35.3567 -80.8939 51° Northeast 228 262 5,300 -1,426 Descending Atlanta Center
04:44PM 35.3778 -80.8192 71° East 222 255 4,000 -738 Descending Atlanta Center
04:45PM 35.3314 -80.8056 167° South 191 220 3,800 -197 Descending Atlanta Center